Time;durP1;ratioP1;P1;durP2;ratioP2;P2;SDS_P1;SDS_P2;PMS_P1;PMS_P2;Temp;Humidity;BMP_temperature;BMP_pressure;BME280_temperature;BME280_humidity;BME280_pressure;Samples;Min_cycle;Max_cycle;Signal;HPM_P1;HPM_P2
2024/04/21 00:00:22;;;;;;;;;;;;;;;;;;139958;1245;25854;-85
2024/04/21 00:03:44;;;;;;;;;;;;;;;;;;140198;1244;22519;-86
2024/04/21 00:06:45;;;;;;;;;;;;;;;;;;139987;1244;22478;-81
2024/04/21 00:09:46;;;;;;;;;;;;;;;;;;140276;1245;24179;-88
2024/04/21 00:20:10;;;;;;;;;;;;;;;;;;140017;1244;22510;-82
2024/04/21 00:23:11;;;;;;;;;;;;;;;;;;140285;1244;22535;-87
2024/04/21 00:26:12;;;;;;;;;;;;;;;;;;140498;1244;22526;-87
2024/04/21 00:29:13;;;;;;;;;;;;;;;;;;139786;1244;22500;-82
2024/04/21 00:32:14;;;;;;;;;;;;;;;;;;140404;1244;23230;-88
2024/04/21 00:35:15;;;;;;;;;;;;;;;;;;141180;1244;22660;-88
2024/04/21 00:38:17;;;;;;;;;;;;;;;;;;140614;1244;22537;-88
2024/04/21 00:41:18;;;;;;;;;;;;;;;;;;140631;1237;22483;-88
2024/04/21 00:44:19;;;;;;;;;;;;;;;;;;141333;1244;22498;-87
2024/04/21 00:47:20;;;;;;;;;;;;;;;;;;140728;1244;22520;-88
2024/04/21 00:50:21;;;;;;;;;;;;;;;;;;140274;1244;22499;-87
2024/04/21 00:53:22;;;;;;;;;;;;;;;;;;140625;1244;22502;-86
2024/04/21 00:56:23;;;;;;;;;;;;;;;;;;139840;1244;24162;-86
2024/04/21 00:59:27;;;;;;;;;;;;;;;;;;140041;1244;22493;-85
2024/04/21 01:02:28;;;;;;;;;;;;;;;;;;140174;1244;22561;-86
2024/04/21 01:05:29;;;;;;;;;;;;;;;;;;140471;1244;24131;-85
2024/04/21 01:08:30;;;;;;;;;;;;;;;;;;140585;1244;23009;-88
2024/04/21 01:11:31;;;;;;;;;;;;;;;;;;140677;1244;22500;-88
2024/04/21 01:14:32;;;;;;;;;;;;;;;;;;141161;1244;22488;-87
2024/04/21 01:17:34;;;;;;;;;;;;;;;;;;140095;1243;22526;-85
2024/04/21 01:20:35;;;;;;;;;;;;;;;;;;140406;1244;22517;-85
2024/04/21 01:23:36;;;;;;;;;;;;;;;;;;140856;1238;22537;-86
2024/04/21 01:26:37;;;;;;;;;;;;;;;;;;140148;1244;22491;-86
2024/04/21 01:29:38;;;;;;;;;;;;;;;;;;140533;1244;22578;-80
2024/04/21 01:32:40;;;;;;;;;;;;;;;;;;140602;1244;22530;-86
2024/04/21 01:35:41;;;;;;;;;;;;;;;;;;140369;1244;22500;-81
2024/04/21 01:38:42;;;;;;;;;;;;;;;;;;140350;1244;25239;-86
2024/04/21 01:41:43;;;;;;;;;;;;;;;;;;140526;1244;22533;-86
2024/04/21 01:44:44;;;;;;;;;;;;;;;;;;140718;1244;22495;-86
2024/04/21 01:47:45;;;;;;;;;;;;;;;;;;140680;1244;22490;-86
2024/04/21 01:50:49;;;;;;;;;;;;;;;;;;140249;1244;23009;-86
2024/04/21 01:53:50;;;;;;;;;;;;;;;;;;140712;1244;22566;-85
2024/04/21 01:56:51;;;;;;;;;;;;;;;;;;141225;1244;25375;-85
2024/04/21 01:59:52;;;;;;;;;;;;;;;;;;140169;1244;22911;-81
2024/04/21 02:02:53;;;;;;;;;;;;;;;;;;140086;1244;22496;-84
2024/04/21 02:05:54;;;;;;;;;;;;;;;;;;140470;1244;22967;-84
2024/04/21 02:08:55;;;;;;;;;;;;;;;;;;140389;1244;22550;-84
2024/04/21 02:11:56;;;;;;;;;;;;;;;;;;140688;1244;22507;-88
2024/04/21 02:14:57;;;;;;;;;;;;;;;;;;140767;1244;22509;-80
2024/04/21 02:17:58;;;;;;;;;;;;;;;;;;140515;1244;22517;-79
2024/04/21 02:20:59;;;;;;;;;;;;;;;;;;140644;1244;22520;-83
2024/04/21 02:24:01;;;;;;;;;;;;;;;;;;141103;1244;22446;-80
2024/04/21 02:27:02;;;;;;;;;;;;;;;;;;140432;1244;22551;-83
2024/04/21 02:30:03;;;;;;;;;;;;;;;;;;140562;1244;22492;-83
2024/04/21 02:33:04;;;;;;;;;;;;;;;;;;140614;1240;22488;-82
2024/04/21 02:36:05;;;;;;;;;;;;;;;;;;140575;1237;22614;-83
2024/04/21 02:39:07;;;;;;;;;;;;;;;;;;140867;1244;24218;-84
2024/04/21 02:42:08;;;;;;;;;;;;;;;;;;140090;1244;22892;-83
2024/04/21 02:45:10;;;;;;;;;;;;;;;;;;140240;1244;24202;-83
2024/04/21 02:48:11;;;;;;;;;;;;;;;;;;140103;1244;22468;-81
2024/04/21 02:51:13;;;;;;;;;;;;;;;;;;139939;1244;23525;-84
2024/04/21 02:54:14;;;;;;;;;;;;;;;;;;140831;1244;22502;-84
2024/04/21 02:57:15;;;;;;;;;;;;;;;;;;140211;1244;22506;-83
2024/04/21 03:00:21;;;;;;;;;;;;;;;;;;140552;1244;22562;-85
2024/04/21 03:03:22;;;;;;;;;;;;;;;;;;140420;1244;22527;-82
2024/04/21 03:06:23;;;;;;;;;;;;;;;;;;139845;1244;22486;-83
2024/04/21 03:09:24;;;;;;;;;;;;;;;;;;140369;1244;25370;-83
2024/04/21 03:12:25;;;;;;;;;;;;;;;;;;140133;1244;22485;-82
2024/04/21 03:15:26;;;;;;;;;;;;;;;;;;140150;1240;22528;-85
2024/04/21 03:18:27;;;;;;;;;;;;;;;;;;140413;1244;22489;-81
2024/04/21 03:21:28;;;;;;;;;;;;;;;;;;140129;1244;22994;-85
2024/04/21 03:24:29;;;;;;;;;;;;;;;;;;140422;1244;23243;-83
2024/04/21 03:27:30;;;;;;;;;;;;;;;;;;140016;1244;25361;-84
2024/04/21 03:30:32;;;;;;;;;;;;;;;;;;140341;1244;22570;-86
2024/04/21 03:33:33;;;;;;;;;;;;;;;;;;140684;1244;22984;-85
2024/04/21 03:36:34;;;;;;;;;;;;;;;;;;140572;1242;22491;-85
2024/04/21 03:39:37;;;;;;;;;;;;;;;;;;140741;1244;25372;-84
2024/04/21 03:42:38;;;;;;;;;;;;;;;;;;140368;1244;22884;-84
2024/04/21 03:45:40;;;;;;;;;;;;;;;;;;140254;1243;23082;-86
2024/04/21 03:48:41;;;;;;;;;;;;;;;;;;140781;1244;22528;-85
2024/04/21 03:51:42;;;;;;;;;;;;;;;;;;140517;1243;22963;-85
2024/04/21 03:54:43;;;;;;;;;;;;;;;;;;140075;1244;22596;-85
2024/04/21 03:57:44;;;;;;;;;;;;;;;;;;140441;1244;22550;-87
2024/04/21 04:00:46;;;;;;;;;;;;;;;;;;140287;1244;22536;-86
2024/04/21 04:03:47;;;;;;;;;;;;;;;;;;140666;1244;22535;-84
2024/04/21 04:06:48;;;;;;;;;;;;;;;;;;140390;1244;22852;-84
2024/04/21 04:09:50;;;;;;;;;;;;;;;;;;140174;1244;25379;-87
2024/04/21 04:12:52;;;;;;;;;;;;;;;;;;140379;1244;22411;-86
2024/04/21 04:15:53;;;;;;;;;;;;;;;;;;140099;1244;22497;-82
2024/04/21 04:18:54;;;;;;;;;;;;;;;;;;140333;1244;22405;-85
2024/04/21 04:21:55;;;;;;;;;;;;;;;;;;140417;1244;22536;-87
2024/04/21 04:24:56;;;;;;;;;;;;;;;;;;140208;1244;22489;-85
2024/04/21 04:27:57;;;;;;;;;;;;;;;;;;140377;1244;22529;-84
2024/04/21 04:30:58;;;;;;;;;;;;;;;;;;140263;1244;22471;-82
2024/04/21 04:33:59;;;;;;;;;;;;;;;;;;140796;1244;22519;-85
2024/04/21 04:37:00;;;;;;;;;;;;;;;;;;140423;1244;22510;-82
2024/04/21 04:40:01;;;;;;;;;;;;;;;;;;140692;1244;22510;-86
2024/04/21 04:43:03;;;;;;;;;;;;;;;;;;140346;1244;23171;-85
2024/04/21 04:46:04;;;;;;;;;;;;;;;;;;140322;1243;22538;-85
2024/04/21 04:49:05;;;;;;;;;;;;;;;;;;140206;1244;22487;-83
2024/04/21 04:52:06;;;;;;;;;;;;;;;;;;140331;1244;22537;-85
2024/04/21 04:55:08;;;;;;;;;;;;;;;;;;140533;1244;22460;-86
2024/04/21 04:58:09;;;;;;;;;;;;;;;;;;140733;1244;22497;-85
2024/04/21 05:01:10;;;;;;;;;;;;;;;;;;140646;1244;22532;-85
2024/04/21 05:04:11;;;;;;;;;;;;;;;;;;141001;1244;22529;-86
2024/04/21 05:07:12;;;;;;;;;;;;;;;;;;140702;1244;22515;-82
2024/04/21 05:10:14;;;;;;;;;;;;;;;;;;140748;1244;22538;-84
2024/04/21 05:13:15;;;;;;;;;;;;;;;;;;140219;1244;22577;-82
2024/04/21 05:16:16;;;;;;;;;;;;;;;;;;139956;1244;22525;-80
2024/04/21 05:19:17;;;;;;;;;;;;;;;;;;140383;1244;22530;-83
2024/04/21 05:22:18;;;;;;;;;;;;;;;;;;139997;1244;22483;-83
2024/04/21 05:25:19;;;;;;;;;;;;;;;;;;140409;1240;24189;-85
2024/04/21 05:28:21;;;;;;;;;;;;;;;;;;140107;1244;24955;-85
2024/04/21 05:31:22;;;;;;;;;;;;;;;;;;140045;1244;22484;-81
2024/04/21 05:34:23;;;;;;;;;;;;;;;;;;140267;1244;23149;-85
2024/04/21 05:37:27;;;;;;;;;;;;;;;;;;139771;1244;23122;-80
2024/04/21 05:40:28;;;;;;;;;;;;;;;;;;139944;1244;22517;-83
2024/04/21 05:43:29;;;;;;;;;;;;;;;;;;139949;1244;22848;-83
2024/04/21 05:46:30;;;;;;;;;;;;;;;;;;140366;1244;22504;-86
2024/04/21 05:49:33;;;;;;;;;;;;;;;;;;140625;1244;22523;-83
2024/04/21 05:52:34;;;;;;;;;;;;;;;;;;140395;1244;22538;-86
2024/04/21 05:55:35;;;;;;;;;;;;;;;;;;140386;1244;22532;-82
2024/04/21 05:58:36;;;;;;;;;;;;;;;;;;139914;1244;25362;-85
2024/04/21 06:01:37;;;;;;;;;;;;;;;;;;140072;1244;22530;-84
2024/04/21 06:04:39;;;;;;;;;;;;;;;;;;140191;1244;22487;-81
2024/04/21 06:07:40;;;;;;;;;;;;;;;;;;140179;1244;22537;-85
2024/04/21 06:10:41;;;;;;;;;;;;;;;;;;140831;1244;22620;-86
2024/04/21 06:13:42;;;;;;;;;;;;;;;;;;140797;1244;22550;-85
2024/04/21 06:16:43;;;;;;;;;;;;;;;;;;141123;1244;24166;-84
2024/04/21 06:19:44;;;;;;;;;;;;;;;;;;140992;1244;22492;-84
2024/04/21 06:22:46;;;;;;;;;;;;;;;;;;140741;1244;22899;-83
2024/04/21 06:25:47;;;;;;;;;;;;;;;;;;140828;1244;22524;-82
2024/04/21 06:28:48;;;;;;;;;;;;;;;;;;140728;1244;22998;-80
2024/04/21 06:31:49;;;;;;;;;;;;;;;;;;139777;1244;22524;-79
2024/04/21 06:34:50;;;;;;;;;;;;;;;;;;140974;1244;22487;-83
2024/04/21 06:37:51;;;;;;;;;;;;;;;;;;140722;1244;23009;-82
2024/04/21 06:40:52;;;;;;;;;;;;;;;;;;140735;1244;22524;-83
2024/04/21 06:43:53;;;;;;;;;;;;;;;;;;141067;1240;22515;-83
2024/04/21 06:46:54;;;;;;;;;;;;;;;;;;139980;1244;24173;-82
2024/04/21 06:49:55;;;;;;;;;;;;;;;;;;139907;1244;22500;-84
2024/04/21 06:52:57;;;;;;;;;;;;;;;;;;140517;1244;22480;-84
2024/04/21 06:55:58;;;;;;;;;;;;;;;;;;140938;1244;22502;-82
2024/04/21 06:58:59;;;;;;;;;;;;;;;;;;140759;1244;23080;-77
2024/04/21 07:02:00;;;;;;;;;;;;;;;;;;140390;1244;22497;-84
2024/04/21 07:05:01;;;;;;;;;;;;;;;;;;140399;1243;24154;-83
2024/04/21 07:08:02;;;;;;;;;;;;;;;;;;141256;1244;22511;-84
2024/04/21 07:11:05;;;;;;;;;;;;;;;;;;140207;1244;22516;-84
2024/04/21 07:14:06;;;;;;;;;;;;;;;;;;141298;1244;22529;-82
2024/04/21 07:17:10;;;;;;;;;;;;;;;;;;141256;1244;22502;-83
2024/04/21 07:20:12;;;;;;;;;;;;;;;;;;140289;1244;22475;-85
2024/04/21 07:23:15;;;;;;;;;;;;;;;;;;139882;1244;22617;-83
2024/04/21 07:26:16;;;;;;;;;;;;;;;;;;140412;1244;22517;-86
2024/04/21 07:29:17;;;;;;;;;;;;;;;;;;140904;1244;22518;-87
2024/04/21 07:32:18;;;;;;;;;;;;;;;;;;141226;1244;23073;-84
2024/04/21 07:35:19;;;;;;;;;;;;;;;;;;140817;1244;22530;-83
2024/04/21 07:38:20;;;;;;;;;;;;;;;;;;140777;1244;24246;-84
2024/04/21 07:41:22;;;;;;;;;;;;;;;;;;141420;1240;22508;-84
2024/04/21 07:44:23;;;;;;;;;;;;;;;;;;140928;1244;22478;-84
2024/04/21 07:47:25;;;;;;;;;;;;;;;;;;140818;1244;22488;-84
2024/04/21 07:50:26;;;;;;;;;;;;;;;;;;141377;1244;22507;-85
2024/04/21 07:53:27;;;;;;;;;;;;;;;;;;140745;1244;22415;-78
2024/04/21 07:56:28;;;;;;;;;;;;;;;;;;140848;1244;22499;-84
2024/04/21 07:59:29;;;;;;;;;;;;;;;;;;141567;1244;22547;-84
2024/04/21 08:02:30;;;;;;;;;;;;;;;;;;141022;1243;22545;-83
2024/04/21 08:05:31;;;;;;;;;;;;;;;;;;141036;1244;22470;-84
2024/04/21 08:08:32;;;;;;;;;;;;;;;;;;141035;1244;23630;-84
2024/04/21 08:11:33;;;;;;;;;;;;;;;;;;141109;1244;22926;-84
2024/04/21 08:14:34;;;;;;;;;;;;;;;;;;140755;1244;22486;-84
2024/04/21 08:17:36;;;;;;;;;;;;;;;;;;141034;1244;22528;-84
2024/04/21 08:20:38;;;;;;;;;;;;;;;;;;141574;1244;22498;-85
2024/04/21 08:23:39;;;;;;;;;;;;;;;;;;140931;1244;22470;-85
2024/04/21 08:26:40;;;;;;;;;;;;;;;;;;140787;1244;22535;-85
2024/04/21 08:29:42;;;;;;;;;;;;;;;;;;141484;1244;22497;-85
2024/04/21 08:32:43;;;;;;;;;;;;;;;;;;140926;1243;22486;-85
2024/04/21 08:35:44;;;;;;;;;;;;;;;;;;140915;1244;22506;-86
2024/04/21 08:38:45;;;;;;;;;;;;;;;;;;141211;1244;23543;-86
2024/04/21 08:41:46;;;;;;;;;;;;;;;;;;141068;1244;22789;-86
2024/04/21 08:44:47;;;;;;;;;;;;;;;;;;140735;1244;24188;-87
2024/04/21 08:47:49;;;;;;;;;;;;;;;;;;140856;1244;22506;-88
2024/04/21 08:50:50;;;;;;;;;;;;;;;;;;141324;1244;22518;-88
2024/04/21 08:53:51;;;;;;;;;;;;;;;;;;141460;1244;22287;-85
2024/04/21 08:56:52;;;;;;;;;;;;;;;;;;141455;1244;22793;-86
2024/04/21 08:59:53;;;;;;;;;;;;;;;;;;141505;1244;22342;-86
2024/04/21 09:02:54;;;;;;;;;;;;;;;;;;141511;1244;22656;-85
2024/04/21 09:05:55;;;;;;;;;;;;;;;;;;141480;1244;22244;-86
2024/04/21 09:08:57;;;;;;;;;;;;;;;;;;141535;1244;22271;-86
2024/04/21 09:11:58;;;;;;;;;;;;;;;;;;141509;1244;22602;-87
2024/04/21 09:14:59;;;;;;;;;;;;;;;;;;141483;1244;22246;-86
2024/04/21 09:18:01;;;;;;;;;;;;;;;;;;141483;1244;22267;-87
2024/04/21 09:21:02;;;;;;;;;;;;;;;;;;141507;1244;22754;-87
2024/04/21 09:24:03;;;;;;;;;;;;;;;;;;141495;1244;22248;-86
2024/04/21 09:27:04;;;;;;;;;;;;;;;;;;141507;1243;22192;-86
2024/04/21 09:30:05;;;;;;;;;;;;;;;;;;141493;1244;22730;-87
2024/04/21 09:33:06;;;;;;;;;;;;;;;;;;141204;1244;335837;-87
2024/04/21 09:36:07;;;;;;;;;;;;;;;;;;141479;1244;22311;-87
2024/04/21 09:39:08;;;;;;;;;;;;;;;;;;141473;1244;22255;-86
2024/04/21 09:42:10;;;;;;;;;;;;;;;;;;141461;1244;22815;-87
2024/04/21 09:45:13;;;;;;;;;;;;;;;;;;141484;1244;22187;-86
2024/04/21 09:48:14;;;;;;;;;;;;;;;;;;141509;1244;22718;-86
2024/04/21 09:51:18;;;;;;;;;;;;;;;;;;141499;1244;22275;-86
2024/04/21 09:54:19;;;;;;;;;;;;;;;;;;141505;1244;22193;-86
2024/04/21 09:57:20;;;;;;;;;;;;;;;;;;141482;1244;22172;-86
2024/04/21 10:00:22;;;;;;;;;;;;;;;;;;141475;1240;22370;-86
2024/04/21 10:03:23;;;;;;;;;;;;;;;;;;141488;1244;22278;-85
2024/04/21 10:06:24;;;;;;;;;;;;;;;;;;141469;1244;22275;-86
2024/04/21 10:09:25;;;;;;;;;;;;;;;;;;141516;1244;22821;-86
2024/04/21 10:12:26;;;;;;;;;;;;;;;;;;141495;1244;22238;-84
2024/04/21 10:15:27;;;;;;;;;;;;;;;;;;141490;1244;22259;-86
2024/04/21 10:18:28;;;;;;;;;;;;;;;;;;141504;1244;22233;-86
2024/04/21 10:21:29;;;;;;;;;;;;;;;;;;141501;1244;22254;-86
2024/04/21 10:24:31;;;;;;;;;;;;;;;;;;141548;1244;22269;-86
2024/04/21 10:27:32;;;;;;;;;;;;;;;;;;141517;1244;22272;-86
2024/04/21 10:30:33;;;;;;;;;;;;;;;;;;141537;1244;22383;-86
2024/04/21 10:33:35;;;;;;;;;;;;;;;;;;141579;1244;22275;-85
2024/04/21 10:36:36;;;;;;;;;;;;;;;;;;141573;1244;22304;-86
2024/04/21 10:39:38;;;;;;;;;;;;;;;;;;141663;1244;22277;-87
2024/04/21 10:42:40;;;;;;;;;;;;;;;;;;141719;1244;22300;-86
2024/04/21 10:45:41;;;;;;;;;;;;;;;;;;141744;1244;22240;-87
2024/04/21 10:48:42;;;;;;;;;;;;;;;;;;141747;1244;22254;-87
2024/04/21 10:51:43;;;;;;;;;;;;;;;;;;141641;1244;22246;-87
2024/04/21 10:54:44;;;;;;;;;;;;;;;;;;141629;1244;22269;-87
2024/04/21 10:57:45;;;;;;;;;;;;;;;;;;141517;1244;22292;-87
2024/04/21 11:00:46;;;;;;;;;;;;;;;;;;141531;1240;22383;-87
2024/04/21 11:03:47;;;;;;;;;;;;;;;;;;141569;1244;22191;-87
2024/04/21 11:06:49;;;;;;;;;;;;;;;;;;141502;1244;22275;-87
2024/04/21 11:09:51;;;;;;;;;;;;;;;;;;141542;1244;22189;-86
2024/04/21 11:12:53;;;;;;;;;;;;;;;;;;141555;1244;22727;-87
2024/04/21 11:15:54;;;;;;;;;;;;;;;;;;141546;1244;22208;-86
2024/04/21 11:18:56;;;;;;;;;;;;;;;;;;141518;1244;22254;-87
2024/04/21 11:21:57;;;;;;;;;;;;;;;;;;141507;1244;22247;-86
2024/04/21 11:24:58;;;;;;;;;;;;;;;;;;141513;1244;22643;-86
2024/04/21 11:27:59;;;;;;;;;;;;;;;;;;141534;1244;22323;-85
2024/04/21 11:31:03;;;;;;;;;;;;;;;;;;141527;1244;22340;-86
2024/04/21 11:34:04;;;;;;;;;;;;;;;;;;141562;1240;22218;-87
2024/04/21 11:37:05;;;;;;;;;;;;;;;;;;141554;1244;22797;-86
2024/04/21 11:40:06;;;;;;;;;;;;;;;;;;141570;1244;22168;-86
2024/04/21 11:43:08;;;;;;;;;;;;;;;;;;141545;1244;22823;-85
2024/04/21 11:46:09;;;;;;;;;;;;;;;;;;141555;1244;22124;-86
2024/04/21 11:49:10;;;;;;;;;;;;;;;;;;141534;1244;22300;-87
2024/04/21 11:52:11;;;;;;;;;;;;;;;;;;141557;1244;22208;-86
2024/04/21 11:55:12;;;;;;;;;;;;;;;;;;141577;1244;22784;-86
2024/04/21 11:58:13;;;;;;;;;;;;;;;;;;141567;1244;22226;-86
2024/04/21 12:01:15;;;;;;;;;;;;;;;;;;141548;1244;22372;-86
2024/04/21 12:04:16;;;;;;;;;;;;;;;;;;141549;1244;22328;-84
2024/04/21 12:07:22;;;;;;;;;;;;;;;;;;141561;1244;22798;-85
2024/04/21 12:10:23;;;;;;;;;;;;;;;;;;141558;1244;22144;-87
2024/04/21 12:13:24;;;;;;;;;;;;;;;;;;141552;1244;22182;-85
2024/04/21 12:16:25;;;;;;;;;;;;;;;;;;141577;1244;22277;-85
2024/04/21 12:19:27;;;;;;;;;;;;;;;;;;141585;1244;22262;-85
2024/04/21 12:22:28;;;;;;;;;;;;;;;;;;141611;1244;22155;-84
2024/04/21 12:25:29;;;;;;;;;;;;;;;;;;141610;1244;22288;-83
2024/04/21 12:28:31;;;;;;;;;;;;;;;;;;141582;1244;22368;-83
2024/04/21 12:31:32;;;;;;;;;;;;;;;;;;141568;1244;22296;-84
2024/04/21 12:34:33;;;;;;;;;;;;;;;;;;141568;1244;22162;-85
2024/04/21 12:37:34;;;;;;;;;;;;;;;;;;141542;1244;22205;-84
2024/04/21 12:40:35;;;;;;;;;;;;;;;;;;141554;1244;22357;-84
2024/04/21 12:43:36;;;;;;;;;;;;;;;;;;141555;1244;22207;-83
2024/04/21 12:46:37;;;;;;;;;;;;;;;;;;141560;1244;22270;-84
2024/04/21 12:49:39;;;;;;;;;;;;;;;;;;141552;1244;22163;-83
2024/04/21 12:52:40;;;;;;;;;;;;;;;;;;141557;1244;22792;-83
2024/04/21 12:55:41;;;;;;;;;;;;;;;;;;141575;1244;22298;-84
2024/04/21 12:58:42;;;;;;;;;;;;;;;;;;141564;1244;22422;-84
2024/04/21 13:01:43;;;;;;;;;;;;;;;;;;141590;1244;22180;-84
2024/04/21 13:04:44;;;;;;;;;;;;;;;;;;141546;1244;22572;-85
2024/04/21 13:07:45;;;;;;;;;;;;;;;;;;141582;1244;22675;-85
2024/04/21 13:10:46;;;;;;;;;;;;;;;;;;141545;1244;22248;-85
2024/04/21 13:13:47;;;;;;;;;;;;;;;;;;141583;1244;22191;-83
2024/04/21 13:16:49;;;;;;;;;;;;;;;;;;141589;1244;22357;-83
2024/04/21 13:19:50;;;;;;;;;;;;;;;;;;141561;1244;22201;-84
2024/04/21 13:22:51;;;;;;;;;;;;;;;;;;141529;1244;22192;-83
2024/04/21 13:25:52;;;;;;;;;;;;;;;;;;141554;1244;22245;-83
2024/04/21 13:28:53;;;;;;;;;;;;;;;;;;141569;1244;22401;-83
2024/04/21 13:31:54;;;;;;;;;;;;;;;;;;141578;1244;22192;-83
2024/04/21 13:34:56;;;;;;;;;;;;;;;;;;141609;1244;22244;-82
2024/04/21 13:37:57;;;;;;;;;;;;;;;;;;141671;1244;22271;-82
2024/04/21 13:41:00;;;;;;;;;;;;;;;;;;141670;1244;22203;-82
2024/04/21 13:44:02;;;;;;;;;;;;;;;;;;141656;1244;22559;-83
2024/04/21 13:47:03;;;;;;;;;;;;;;;;;;141609;1244;22289;-83
2024/04/21 13:50:04;;;;;;;;;;;;;;;;;;141565;1244;22256;-83
2024/04/21 13:53:06;;;;;;;;;;;;;;;;;;141533;1244;22255;-83
2024/04/21 13:56:07;;;;;;;;;;;;;;;;;;141560;1240;22202;-83
2024/04/21 13:59:08;;;;;;;;;;;;;;;;;;141544;1244;22337;-83
2024/04/21 14:02:09;;;;;;;;;;;;;;;;;;141564;1244;22174;-83
2024/04/21 14:05:10;;;;;;;;;;;;;;;;;;141549;1244;22611;-83
2024/04/21 14:08:12;;;;;;;;;;;;;;;;;;141504;1244;22172;-83
2024/04/21 14:11:13;;;;;;;;;;;;;;;;;;141577;1244;22194;-83
2024/04/21 14:14:14;;;;;;;;;;;;;;;;;;141560;1244;22348;-83
2024/04/21 14:17:15;;;;;;;;;;;;;;;;;;141497;1244;22250;-84
2024/04/21 14:20:16;;;;;;;;;;;;;;;;;;141527;1244;22245;-81
2024/04/21 14:23:20;;;;;;;;;;;;;;;;;;141495;1244;22637;-83
2024/04/21 14:26:21;;;;;;;;;;;;;;;;;;141466;1244;22180;-82
2024/04/21 14:29:22;;;;;;;;;;;;;;;;;;141449;1244;22335;-82
2024/04/21 14:32:24;;;;;;;;;;;;;;;;;;141461;1244;22179;-82
2024/04/21 14:35:25;;;;;;;;;;;;;;;;;;141479;1244;22269;-82
2024/04/21 14:38:27;;;;;;;;;;;;;;;;;;141460;1244;22651;-83
2024/04/21 14:41:28;;;;;;;;;;;;;;;;;;141434;1244;22237;-82
2024/04/21 14:44:29;;;;;;;;;;;;;;;;;;141477;1244;22565;-83
2024/04/21 14:47:32;;;;;;;;;;;;;;;;;;141512;1244;22278;-83
2024/04/21 14:50:33;;;;;;;;;;;;;;;;;;141485;1244;22236;-83
2024/04/21 14:53:35;;;;;;;;;;;;;;;;;;141510;1244;22343;-84
2024/04/21 14:56:36;;;;;;;;;;;;;;;;;;141476;1244;22165;-83
2024/04/21 14:59:37;;;;;;;;;;;;;;;;;;141523;1244;22378;-82
2024/04/21 15:02:39;;;;;;;;;;;;;;;;;;141541;1244;22170;-82
2024/04/21 15:05:40;;;;;;;;;;;;;;;;;;141491;1244;22248;-83
2024/04/21 15:08:41;;;;;;;;;;;;;;;;;;141504;1241;22266;-82
2024/04/21 15:11:43;;;;;;;;;;;;;;;;;;141478;1244;22169;-81
2024/04/21 15:14:44;;;;;;;;;;;;;;;;;;141510;1244;22180;-82
2024/04/21 15:17:45;;;;;;;;;;;;;;;;;;141508;1244;22707;-83
2024/04/21 15:20:46;;;;;;;;;;;;;;;;;;141517;1244;22174;-82
2024/04/21 15:23:47;;;;;;;;;;;;;;;;;;141545;1244;22273;-82
2024/04/21 15:26:50;;;;;;;;;;;;;;;;;;141483;1244;22788;-82
2024/04/21 15:29:51;;;;;;;;;;;;;;;;;;141511;1244;22317;-82
2024/04/21 15:32:52;;;;;;;;;;;;;;;;;;141554;1244;22193;-82
2024/04/21 15:35:53;;;;;;;;;;;;;;;;;;141497;1244;22189;-82
2024/04/21 15:38:54;;;;;;;;;;;;;;;;;;141523;1244;22277;-81
2024/04/21 15:41:55;;;;;;;;;;;;;;;;;;141526;1244;22202;-81
2024/04/21 15:44:57;;;;;;;;;;;;;;;;;;141529;1244;22215;-82
2024/04/21 15:47:58;;;;;;;;;;;;;;;;;;141488;1244;22248;-82
2024/04/21 15:50:59;;;;;;;;;;;;;;;;;;141465;1244;22187;-82
2024/04/21 15:54:00;;;;;;;;;;;;;;;;;;141502;1244;22165;-82
2024/04/21 15:57:01;;;;;;;;;;;;;;;;;;141478;1240;22299;-82
2024/04/21 16:00:03;;;;;;;;;;;;;;;;;;141434;1244;22928;-82
2024/04/21 16:03:05;;;;;;;;;;;;;;;;;;141440;1244;22220;-82
2024/04/21 16:06:06;;;;;;;;;;;;;;;;;;141455;1244;22231;-81
2024/04/21 16:09:07;;;;;;;;;;;;;;;;;;141460;1244;22748;-82
2024/04/21 16:12:08;;;;;;;;;;;;;;;;;;141478;1244;22284;-82
2024/04/21 16:15:12;;;;;;;;;;;;;;;;;;141496;1244;22348;-82
2024/04/21 16:18:14;;;;;;;;;;;;;;;;;;141467;1244;22152;-82
2024/04/21 16:21:15;;;;;;;;;;;;;;;;;;141456;1244;22957;-82
2024/04/21 16:24:16;;;;;;;;;;;;;;;;;;141477;1244;22168;-80
2024/04/21 16:27:17;;;;;;;;;;;;;;;;;;141469;1244;22181;-82
2024/04/21 16:30:18;;;;;;;;;;;;;;;;;;141577;1244;22356;-81
2024/04/21 16:33:20;;;;;;;;;;;;;;;;;;141721;1244;22238;-81
2024/04/21 16:36:21;;;;;;;;;;;;;;;;;;141672;1244;22706;-83
2024/04/21 16:39:22;;;;;;;;;;;;;;;;;;141684;1244;22217;-81
2024/04/21 16:42:23;;;;;;;;;;;;;;;;;;141617;1244;22277;-81
2024/04/21 16:45:24;;;;;;;;;;;;;;;;;;141579;1244;22708;-82
2024/04/21 16:48:25;;;;;;;;;;;;;;;;;;141496;1244;22681;-81
2024/04/21 16:51:26;;;;;;;;;;;;;;;;;;141506;1244;22234;-82
2024/04/21 16:54:27;;;;;;;;;;;;;;;;;;141539;1244;22328;-80
2024/04/21 16:57:28;;;;;;;;;;;;;;;;;;141500;1244;22176;-81
2024/04/21 17:00:29;;;;;;;;;;;;;;;;;;141528;1244;22350;-81
2024/04/21 17:03:31;;;;;;;;;;;;;;;;;;141535;1244;22244;-82
2024/04/21 17:06:32;;;;;;;;;;;;;;;;;;141522;1244;22262;-82
2024/04/21 17:09:33;;;;;;;;;;;;;;;;;;141472;1244;22266;-81
2024/04/21 17:12:35;;;;;;;;;;;;;;;;;;141450;1244;22247;-82
2024/04/21 17:15:37;;;;;;;;;;;;;;;;;;141441;1244;22272;-82
2024/04/21 17:18:39;;;;;;;;;;;;;;;;;;141452;1244;22665;-82
2024/04/21 17:21:40;;;;;;;;;;;;;;;;;;141447;1244;22262;-81
2024/04/21 17:24:42;;;;;;;;;;;;;;;;;;141424;1244;22215;-81
2024/04/21 17:27:43;;;;;;;;;;;;;;;;;;141472;1244;22159;-81
2024/04/21 17:30:45;;;;;;;;;;;;;;;;;;141409;1244;22809;-81
2024/04/21 17:33:46;;;;;;;;;;;;;;;;;;141428;1244;22587;-81
2024/04/21 17:36:47;;;;;;;;;;;;;;;;;;141438;1244;22660;-81
2024/04/21 17:39:49;;;;;;;;;;;;;;;;;;141505;1244;22249;-82
2024/04/21 17:42:51;;;;;;;;;;;;;;;;;;141502;1240;22181;-82
2024/04/21 17:45:53;;;;;;;;;;;;;;;;;;141487;1244;22194;-81
2024/04/21 17:48:54;;;;;;;;;;;;;;;;;;141483;1244;22305;-80
2024/04/21 17:51:55;;;;;;;;;;;;;;;;;;141414;1243;22299;-80
2024/04/21 17:54:56;;;;;;;;;;;;;;;;;;141412;1244;22250;-82
2024/04/21 17:57:57;;;;;;;;;;;;;;;;;;141393;1244;22332;-82
2024/04/21 18:00:58;;;;;;;;;;;;;;;;;;141385;1244;22358;-81
2024/04/21 18:03:59;;;;;;;;;;;;;;;;;;141399;1244;22180;-81
2024/04/21 18:07:01;;;;;;;;;;;;;;;;;;141434;1244;22198;-82
2024/04/21 18:10:02;;;;;;;;;;;;;;;;;;141457;1244;22179;-81
2024/04/21 18:13:03;;;;;;;;;;;;;;;;;;141437;1244;22672;-82
2024/04/21 18:16:04;;;;;;;;;;;;;;;;;;141426;1244;22174;-80
2024/04/21 18:19:05;;;;;;;;;;;;;;;;;;141449;1244;22735;-81
2024/04/21 18:22:07;;;;;;;;;;;;;;;;;;141411;1244;22268;-81
2024/04/21 18:25:08;;;;;;;;;;;;;;;;;;141434;1244;22280;-82
2024/04/21 18:28:09;;;;;;;;;;;;;;;;;;141420;1244;22160;-81
2024/04/21 18:31:11;;;;;;;;;;;;;;;;;;141442;1244;22962;-81
2024/04/21 18:34:12;;;;;;;;;;;;;;;;;;141465;1244;22242;-82
2024/04/21 18:37:13;;;;;;;;;;;;;;;;;;141427;1244;22247;-82
2024/04/21 18:40:14;;;;;;;;;;;;;;;;;;141465;1244;22751;-81
2024/04/21 18:43:15;;;;;;;;;;;;;;;;;;141428;1244;22543;-81
2024/04/21 18:46:16;;;;;;;;;;;;;;;;;;141444;1244;22161;-81
2024/04/21 18:49:17;;;;;;;;;;;;;;;;;;141430;1244;22240;-81
2024/04/21 18:52:18;;;;;;;;;;;;;;;;;;141421;1244;22201;-82
2024/04/21 18:55:19;;;;;;;;;;;;;;;;;;141409;1244;22163;-78
2024/04/21 18:58:20;;;;;;;;;;;;;;;;;;141417;1244;22607;-82
2024/04/21 19:01:21;;;;;;;;;;;;;;;;;;141449;1244;22247;-81
2024/04/21 19:04:22;;;;;;;;;;;;;;;;;;141456;1244;22299;-82
2024/04/21 19:07:23;;;;;;;;;;;;;;;;;;141453;1237;22247;-82
2024/04/21 19:10:26;;;;;;;;;;;;;;;;;;141452;1240;22205;-82
2024/04/21 19:13:27;;;;;;;;;;;;;;;;;;141444;1244;22247;-82
2024/04/21 19:16:30;;;;;;;;;;;;;;;;;;141446;1244;22176;-81
2024/04/21 19:19:31;;;;;;;;;;;;;;;;;;141438;1244;22257;-82
2024/04/21 19:22:32;;;;;;;;;;;;;;;;;;141443;1244;22823;-82
2024/04/21 19:25:33;;;;;;;;;;;;;;;;;;141444;1243;22157;-82
2024/04/21 19:28:35;;;;;;;;;;;;;;;;;;141489;1244;22390;-81
2024/04/21 19:31:36;;;;;;;;;;;;;;;;;;141592;1244;22639;-82
2024/04/21 19:34:37;;;;;;;;;;;;;;;;;;141590;1244;22636;-82
2024/04/21 19:37:39;;;;;;;;;;;;;;;;;;141572;1244;22277;-82
2024/04/21 19:40:40;;;;;;;;;;;;;;;;;;141496;1244;22634;-82
2024/04/21 19:43:41;;;;;;;;;;;;;;;;;;141400;1243;22255;-82
2024/04/21 19:46:42;;;;;;;;;;;;;;;;;;141415;1244;22750;-82
2024/04/21 19:49:44;;;;;;;;;;;;;;;;;;141455;1243;22778;-81
2024/04/21 19:52:45;;;;;;;;;;;;;;;;;;141426;1244;22261;-82
2024/04/21 19:55:47;;;;;;;;;;;;;;;;;;141453;1244;22579;-81
2024/04/21 19:58:48;;;;;;;;;;;;;;;;;;141434;1244;22353;-82
2024/04/21 20:01:49;;;;;;;;;;;;;;;;;;141435;1244;22286;-82
2024/04/21 20:04:50;;;;;;;;;;;;;;;;;;141444;1244;22308;-82
2024/04/21 20:07:51;;;;;;;;;;;;;;;;;;141429;1244;22259;-82
2024/04/21 20:10:52;;;;;;;;;;;;;;;;;;141442;1243;22263;-82
2024/04/21 20:13:53;;;;;;;;;;;;;;;;;;141463;1244;22254;-83
2024/04/21 20:20:14;;;;;;;;;;;;;;;;;;141462;1244;22334;-83
2024/04/21 20:23:15;;;;;;;;;;;;;;;;;;141450;1237;22652;-83
2024/04/21 20:26:17;;;;;;;;;;;;;;;;;;141424;1244;22295;-82